sensor_id;sensor_type;location;lat;lon;timestamp;temperature;humidity
47490;DHT22;33226;56.996;14.584;2022-08-01T00:01:50;12.40;99.90
47490;DHT22;33226;56.996;14.584;2022-08-01T00:04:15;12.40;99.90
47490;DHT22;33226;56.996;14.584;2022-08-01T00:06:41;12.40;99.90
47490;DHT22;33226;56.996;14.584;2022-08-01T00:09:06;12.40;99.90
47490;DHT22;33226;56.996;14.584;2022-08-01T00:11:32;12.40;99.90
47490;DHT22;33226;56.996;14.584;2022-08-01T00:13:57;12.40;99.90
47490;DHT22;33226;56.996;14.584;2022-08-01T00:16:23;12.40;99.90
47490;DHT22;33226;56.996;14.584;2022-08-01T00:18:50;12.40;99.90
47490;DHT22;33226;56.996;14.584;2022-08-01T00:21:16;12.40;99.90
47490;DHT22;33226;56.996;14.584;2022-08-01T00:23:42;12.40;99.90
47490;DHT22;33226;56.996;14.584;2022-08-01T00:26:08;12.40;99.90
47490;DHT22;33226;56.996;14.584;2022-08-01T00:28:34;12.40;99.90
47490;DHT22;33226;56.996;14.584;2022-08-01T00:31:00;12.30;99.90
47490;DHT22;33226;56.996;14.584;2022-08-01T00:33:25;12.30;99.90
47490;DHT22;33226;56.996;14.584;2022-08-01T00:35:52;12.30;99.90
47490;DHT22;33226;56.996;14.584;2022-08-01T00:38:17;12.30;99.90
47490;DHT22;33226;56.996;14.584;2022-08-01T00:40:43;12.30;99.90
47490;DHT22;33226;56.996;14.584;2022-08-01T00:43:09;12.30;99.90
47490;DHT22;33226;56.996;14.584;2022-08-01T00:45:35;12.30;99.90
47490;DHT22;33226;56.996;14.584;2022-08-01T00:48:00;12.30;99.90
47490;DHT22;33226;56.996;14.584;2022-08-01T00:50:26;12.30;99.90
47490;DHT22;33226;56.996;14.584;2022-08-01T00:52:53;12.30;99.90
47490;DHT22;33226;56.996;14.584;2022-08-01T00:55:19;12.30;99.90
47490;DHT22;33226;56.996;14.584;2022-08-01T00:57:45;12.40;99.90
47490;DHT22;33226;56.996;14.584;2022-08-01T01:00:12;12.40;99.90
47490;DHT22;33226;56.996;14.584;2022-08-01T01:02:38;12.40;99.90
47490;DHT22;33226;56.996;14.584;2022-08-01T01:05:04;12.40;99.90
47490;DHT22;33226;56.996;14.584;2022-08-01T01:10:13;12.40;99.90
47490;DHT22;33226;56.996;14.584;2022-08-01T01:13:23;12.50;99.90
47490;DHT22;33226;56.996;14.584;2022-08-01T01:15:57;12.40;99.90
47490;DHT22;33226;56.996;14.584;2022-08-01T01:18:28;12.50;99.90
47490;DHT22;33226;56.996;14.584;2022-08-01T01:34:20;12.80;99.90
47490;DHT22;33226;56.996;14.584;2022-08-01T01:36:47;12.80;99.90
47490;DHT22;33226;56.996;14.584;2022-08-01T01:39:14;12.80;99.90
47490;DHT22;33226;56.996;14.584;2022-08-01T01:41:41;12.80;99.90
47490;DHT22;33226;56.996;14.584;2022-08-01T01:44:09;12.80;99.90
47490;DHT22;33226;56.996;14.584;2022-08-01T01:46:36;12.90;99.90
47490;DHT22;33226;56.996;14.584;2022-08-01T01:49:02;12.90;99.90
47490;DHT22;33226;56.996;14.584;2022-08-01T01:51:29;12.90;99.90
47490;DHT22;33226;56.996;14.584;2022-08-01T01:53:55;13.00;99.90
47490;DHT22;33226;56.996;14.584;2022-08-01T01:56:22;13.00;99.90
47490;DHT22;33226;56.996;14.584;2022-08-01T01:58:52;13.00;99.90
47490;DHT22;33226;56.996;14.584;2022-08-01T02:01:19;13.00;99.90
47490;DHT22;33226;56.996;14.584;2022-08-01T02:03:48;13.10;99.90
47490;DHT22;33226;56.996;14.584;2022-08-01T02:06:16;13.10;99.90
47490;DHT22;33226;56.996;14.584;2022-08-01T02:08:42;13.10;99.90
47490;DHT22;33226;56.996;14.584;2022-08-01T02:11:09;13.10;99.90
47490;DHT22;33226;56.996;14.584;2022-08-01T02:13:48;13.10;99.90
47490;DHT22;33226;56.996;14.584;2022-08-01T02:16:16;13.10;99.90
47490;DHT22;33226;56.996;14.584;2022-08-01T02:18:42;13.10;99.90
47490;DHT22;33226;56.996;14.584;2022-08-01T02:21:11;13.10;99.90
47490;DHT22;33226;56.996;14.584;2022-08-01T02:23:39;13.10;99.90
47490;DHT22;33226;56.996;14.584;2022-08-01T02:26:09;13.00;99.90
47490;DHT22;33226;56.996;14.584;2022-08-01T02:28:49;13.10;99.90
47490;DHT22;33226;56.996;14.584;2022-08-01T02:31:20;13.00;99.90
47490;DHT22;33226;56.996;14.584;2022-08-01T02:33:56;13.00;99.90
47490;DHT22;33226;56.996;14.584;2022-08-01T02:36:25;13.00;99.90
47490;DHT22;33226;56.996;14.584;2022-08-01T02:38:52;12.90;99.90
47490;DHT22;33226;56.996;14.584;2022-08-01T02:41:21;13.00;99.90
47490;DHT22;33226;56.996;14.584;2022-08-01T02:43:49;13.00;99.90
47490;DHT22;33226;56.996;14.584;2022-08-01T02:46:49;12.90;99.90
47490;DHT22;33226;56.996;14.584;2022-08-01T02:49:16;12.90;99.90
47490;DHT22;33226;56.996;14.584;2022-08-01T02:51:45;12.90;99.90
47490;DHT22;33226;56.996;14.584;2022-08-01T02:54:15;12.90;99.90
47490;DHT22;33226;56.996;14.584;2022-08-01T02:56:42;12.90;99.90
47490;DHT22;33226;56.996;14.584;2022-08-01T02:59:12;12.90;99.90
47490;DHT22;33226;56.996;14.584;2022-08-01T03:01:38;12.90;99.90
47490;DHT22;33226;56.996;14.584;2022-08-01T03:04:05;12.90;99.90
47490;DHT22;33226;56.996;14.584;2022-08-01T03:06:33;12.90;99.90
47490;DHT22;33226;56.996;14.584;2022-08-01T03:09:02;12.90;99.90
47490;DHT22;33226;56.996;14.584;2022-08-01T03:11:28;12.80;99.90
47490;DHT22;33226;56.996;14.584;2022-08-01T03:13:55;12.80;99.90
47490;DHT22;33226;56.996;14.584;2022-08-01T03:16:23;12.80;99.90
47490;DHT22;33226;56.996;14.584;2022-08-01T03:18:53;12.90;99.90
47490;DHT22;33226;56.996;14.584;2022-08-01T03:21:22;12.80;99.90
47490;DHT22;33226;56.996;14.584;2022-08-01T03:23:50;12.90;99.90
47490;DHT22;33226;56.996;14.584;2022-08-01T03:26:17;12.80;99.90
47490;DHT22;33226;56.996;14.584;2022-08-01T03:28:46;12.80;99.90
47490;DHT22;33226;56.996;14.584;2022-08-01T03:31:14;12.80;99.90
47490;DHT22;33226;56.996;14.584;2022-08-01T03:33:40;12.80;99.90
47490;DHT22;33226;56.996;14.584;2022-08-01T03:36:09;12.80;99.90
47490;DHT22;33226;56.996;14.584;2022-08-01T03:38:37;12.90;99.90
47490;DHT22;33226;56.996;14.584;2022-08-01T03:41:11;12.90;99.90
47490;DHT22;33226;56.996;14.584;2022-08-01T03:43:41;12.80;99.90
47490;DHT22;33226;56.996;14.584;2022-08-01T03:46:20;12.90;99.90
47490;DHT22;33226;56.996;14.584;2022-08-01T03:48:48;12.90;99.90
47490;DHT22;33226;56.996;14.584;2022-08-01T03:51:18;12.90;99.90
47490;DHT22;33226;56.996;14.584;2022-08-01T03:53:44;12.90;99.90
47490;DHT22;33226;56.996;14.584;2022-08-01T03:56:12;12.90;99.90
47490;DHT22;33226;56.996;14.584;2022-08-01T03:58:42;12.90;99.90
47490;DHT22;33226;56.996;14.584;2022-08-01T04:01:08;12.90;99.90
47490;DHT22;33226;56.996;14.584;2022-08-01T04:03:35;13.00;99.90
47490;DHT22;33226;56.996;14.584;2022-08-01T04:06:06;12.90;99.90
47490;DHT22;33226;56.996;14.584;2022-08-01T04:08:40;12.90;99.90
47490;DHT22;33226;56.996;14.584;2022-08-01T04:11:08;12.90;99.90
47490;DHT22;33226;56.996;14.584;2022-08-01T04:13:34;12.90;99.90
47490;DHT22;33226;56.996;14.584;2022-08-01T04:15:59;13.00;99.90
47490;DHT22;33226;56.996;14.584;2022-08-01T04:18:25;13.00;99.90
47490;DHT22;33226;56.996;14.584;2022-08-01T04:20:51;13.00;99.90
47490;DHT22;33226;56.996;14.584;2022-08-01T04:23:20;13.10;99.90
47490;DHT22;33226;56.996;14.584;2022-08-01T04:25:48;13.10;99.90
47490;DHT22;33226;56.996;14.584;2022-08-01T04:28:16;13.10;99.90
47490;DHT22;33226;56.996;14.584;2022-08-01T04:30:43;13.20;99.90
47490;DHT22;33226;56.996;14.584;2022-08-01T04:33:13;13.20;99.90
47490;DHT22;33226;56.996;14.584;2022-08-01T04:35:45;13.30;99.90
47490;DHT22;33226;56.996;14.584;2022-08-01T04:38:13;13.40;99.90
47490;DHT22;33226;56.996;14.584;2022-08-01T04:40:42;13.40;99.90
47490;DHT22;33226;56.996;14.584;2022-08-01T04:43:11;13.60;99.90
47490;DHT22;33226;56.996;14.584;2022-08-01T04:45:37;13.60;99.90
47490;DHT22;33226;56.996;14.584;2022-08-01T04:48:05;13.70;99.90
47490;DHT22;33226;56.996;14.584;2022-08-01T04:50:32;13.80;99.90
47490;DHT22;33226;56.996;14.584;2022-08-01T04:52:57;13.90;99.90
47490;DHT22;33226;56.996;14.584;2022-08-01T04:55:23;14.00;99.90
47490;DHT22;33226;56.996;14.584;2022-08-01T04:57:49;14.10;99.90
47490;DHT22;33226;56.996;14.584;2022-08-01T05:00:15;14.20;99.90
47490;DHT22;33226;56.996;14.584;2022-08-01T05:02:42;14.20;99.90
47490;DHT22;33226;56.996;14.584;2022-08-01T05:05:08;14.30;99.90
47490;DHT22;33226;56.996;14.584;2022-08-01T05:07:35;14.40;99.90
47490;DHT22;33226;56.996;14.584;2022-08-01T05:10:05;14.50;99.90
47490;DHT22;33226;56.996;14.584;2022-08-01T05:12:31;14.50;99.90
47490;DHT22;33226;56.996;14.584;2022-08-01T05:15:01;14.60;99.90
47490;DHT22;33226;56.996;14.584;2022-08-01T05:17:27;14.70;99.90
47490;DHT22;33226;56.996;14.584;2022-08-01T05:19:52;14.80;99.90
47490;DHT22;33226;56.996;14.584;2022-08-01T05:22:18;14.80;99.90
47490;DHT22;33226;56.996;14.584;2022-08-01T05:24:44;14.90;99.90
47490;DHT22;33226;56.996;14.584;2022-08-01T05:27:09;15.00;99.90
47490;DHT22;33226;56.996;14.584;2022-08-01T05:29:35;15.00;99.90
47490;DHT22;33226;56.996;14.584;2022-08-01T05:32:01;15.10;99.90
47490;DHT22;33226;56.996;14.584;2022-08-01T05:34:27;15.20;99.90
47490;DHT22;33226;56.996;14.584;2022-08-01T05:36:53;15.30;99.90
47490;DHT22;33226;56.996;14.584;2022-08-01T05:39:18;15.30;99.90
47490;DHT22;33226;56.996;14.584;2022-08-01T05:41:44;15.40;99.90
47490;DHT22;33226;56.996;14.584;2022-08-01T05:44:10;15.40;99.90
47490;DHT22;33226;56.996;14.584;2022-08-01T05:46:36;15.50;99.90
47490;DHT22;33226;56.996;14.584;2022-08-01T05:49:03;15.60;99.90
47490;DHT22;33226;56.996;14.584;2022-08-01T05:51:29;15.60;99.90
47490;DHT22;33226;56.996;14.584;2022-08-01T05:53:55;15.70;99.90
47490;DHT22;33226;56.996;14.584;2022-08-01T05:56:21;15.70;99.90
47490;DHT22;33226;56.996;14.584;2022-08-01T05:58:47;15.80;99.90
47490;DHT22;33226;56.996;14.584;2022-08-01T06:01:13;15.90;99.90
47490;DHT22;33226;56.996;14.584;2022-08-01T06:03:38;16.00;99.90
47490;DHT22;33226;56.996;14.584;2022-08-01T06:06:04;16.00;99.90
47490;DHT22;33226;56.996;14.584;2022-08-01T06:08:30;16.10;99.90
47490;DHT22;33226;56.996;14.584;2022-08-01T06:10:56;16.00;99.90
47490;DHT22;33226;56.996;14.584;2022-08-01T06:13:22;16.10;99.90
47490;DHT22;33226;56.996;14.584;2022-08-01T06:15:48;16.20;99.90
47490;DHT22;33226;56.996;14.584;2022-08-01T06:18:14;16.30;99.90
47490;DHT22;33226;56.996;14.584;2022-08-01T06:20:40;16.40;99.90
47490;DHT22;33226;56.996;14.584;2022-08-01T06:23:05;16.50;99.90
47490;DHT22;33226;56.996;14.584;2022-08-01T06:25:31;16.60;99.90
47490;DHT22;33226;56.996;14.584;2022-08-01T06:27:57;16.70;99.90
47490;DHT22;33226;56.996;14.584;2022-08-01T06:30:23;16.90;99.90
47490;DHT22;33226;56.996;14.584;2022-08-01T06:32:48;17.00;99.90
47490;DHT22;33226;56.996;14.584;2022-08-01T06:35:15;17.10;99.90
47490;DHT22;33226;56.996;14.584;2022-08-01T06:37:41;17.40;99.90
47490;DHT22;33226;56.996;14.584;2022-08-01T06:40:09;17.40;99.90
47490;DHT22;33226;56.996;14.584;2022-08-01T06:42:35;17.60;99.90
47490;DHT22;33226;56.996;14.584;2022-08-01T06:45:05;17.80;99.90
47490;DHT22;33226;56.996;14.584;2022-08-01T06:47:31;17.90;99.90
47490;DHT22;33226;56.996;14.584;2022-08-01T06:49:57;18.00;99.90
47490;DHT22;33226;56.996;14.584;2022-08-01T06:52:23;18.10;99.90
47490;DHT22;33226;56.996;14.584;2022-08-01T06:54:48;18.20;99.90
47490;DHT22;33226;56.996;14.584;2022-08-01T06:57:14;18.20;99.90
47490;DHT22;33226;56.996;14.584;2022-08-01T06:59:40;18.20;99.90
47490;DHT22;33226;56.996;14.584;2022-08-01T07:02:05;18.30;99.90
47490;DHT22;33226;56.996;14.584;2022-08-01T07:04:32;18.40;99.90
47490;DHT22;33226;56.996;14.584;2022-08-01T07:06:58;18.40;99.90
47490;DHT22;33226;56.996;14.584;2022-08-01T07:09:24;18.40;99.90
47490;DHT22;33226;56.996;14.584;2022-08-01T07:11:49;18.50;99.90
47490;DHT22;33226;56.996;14.584;2022-08-01T07:14:17;18.50;99.90
47490;DHT22;33226;56.996;14.584;2022-08-01T07:16:43;18.60;99.90
47490;DHT22;33226;56.996;14.584;2022-08-01T07:19:09;18.70;99.90
47490;DHT22;33226;56.996;14.584;2022-08-01T07:21:34;19.00;99.90
47490;DHT22;33226;56.996;14.584;2022-08-01T07:24:00;19.30;99.90
47490;DHT22;33226;56.996;14.584;2022-08-01T07:26:25;19.80;99.90
47490;DHT22;33226;56.996;14.584;2022-08-01T07:28:52;20.30;99.90
47490;DHT22;33226;56.996;14.584;2022-08-01T07:31:18;20.90;99.90
47490;DHT22;33226;56.996;14.584;2022-08-01T07:33:44;21.40;99.90
47490;DHT22;33226;56.996;14.584;2022-08-01T07:36:09;22.00;99.90
47490;DHT22;33226;56.996;14.584;2022-08-01T07:38:35;22.30;99.90
47490;DHT22;33226;56.996;14.584;2022-08-01T07:41:01;22.80;99.90
47490;DHT22;33226;56.996;14.584;2022-08-01T07:43:27;22.70;99.90
47490;DHT22;33226;56.996;14.584;2022-08-01T07:45:53;23.20;99.90
47490;DHT22;33226;56.996;14.584;2022-08-01T07:48:18;23.50;99.90
47490;DHT22;33226;56.996;14.584;2022-08-01T07:50:46;23.70;98.00
47490;DHT22;33226;56.996;14.584;2022-08-01T07:53:11;23.70;99.80
47490;DHT22;33226;56.996;14.584;2022-08-01T07:55:37;24.10;99.40
47490;DHT22;33226;56.996;14.584;2022-08-01T07:58:02;24.30;98.50
47490;DHT22;33226;56.996;14.584;2022-08-01T08:00:28;24.40;97.70
47490;DHT22;33226;56.996;14.584;2022-08-01T08:02:54;24.50;96.10
47490;DHT22;33226;56.996;14.584;2022-08-01T08:05:20;24.30;93.70
47490;DHT22;33226;56.996;14.584;2022-08-01T08:07:45;24.10;92.50
47490;DHT22;33226;56.996;14.584;2022-08-01T08:10:11;23.50;94.30
47490;DHT22;33226;56.996;14.584;2022-08-01T08:12:37;23.40;94.60
47490;DHT22;33226;56.996;14.584;2022-08-01T08:15:03;23.10;94.40
47490;DHT22;33226;56.996;14.584;2022-08-01T08:17:31;22.50;94.90
47490;DHT22;33226;56.996;14.584;2022-08-01T08:19:57;22.50;96.10
47490;DHT22;33226;56.996;14.584;2022-08-01T08:22:23;22.50;96.50
47490;DHT22;33226;56.996;14.584;2022-08-01T08:24:48;22.40;96.80
47490;DHT22;33226;56.996;14.584;2022-08-01T08:27:14;22.30;97.10
47490;DHT22;33226;56.996;14.584;2022-08-01T08:29:40;22.30;96.70
47490;DHT22;33226;56.996;14.584;2022-08-01T08:32:07;22.30;97.40
47490;DHT22;33226;56.996;14.584;2022-08-01T08:34:33;22.40;97.50
47490;DHT22;33226;56.996;14.584;2022-08-01T08:36:59;22.50;96.60
47490;DHT22;33226;56.996;14.584;2022-08-01T08:39:26;22.50;96.60
47490;DHT22;33226;56.996;14.584;2022-08-01T08:41:52;22.50;96.50
47490;DHT22;33226;56.996;14.584;2022-08-01T08:44:18;22.40;97.50
47490;DHT22;33226;56.996;14.584;2022-08-01T08:46:47;22.50;97.80
47490;DHT22;33226;56.996;14.584;2022-08-01T08:49:17;22.40;97.30
47490;DHT22;33226;56.996;14.584;2022-08-01T08:51:44;22.50;97.60
47490;DHT22;33226;56.996;14.584;2022-08-01T08:54:12;22.50;98.80
47490;DHT22;33226;56.996;14.584;2022-08-01T08:56:39;22.50;97.40
47490;DHT22;33226;56.996;14.584;2022-08-01T08:59:05;22.50;96.50
47490;DHT22;33226;56.996;14.584;2022-08-01T09:01:32;22.50;96.70
47490;DHT22;33226;56.996;14.584;2022-08-01T09:03:58;22.70;97.00
47490;DHT22;33226;56.996;14.584;2022-08-01T09:06:24;23.00;97.90
47490;DHT22;33226;56.996;14.584;2022-08-01T09:08:50;23.40;97.10
47490;DHT22;33226;56.996;14.584;2022-08-01T09:11:16;23.50;96.40
47490;DHT22;33226;56.996;14.584;2022-08-01T09:13:43;23.70;94.90
47490;DHT22;33226;56.996;14.584;2022-08-01T09:16:26;24.10;93.70
47490;DHT22;33226;56.996;14.584;2022-08-01T09:18:51;24.30;92.90
47490;DHT22;33226;56.996;14.584;2022-08-01T09:21:19;24.60;91.90
47490;DHT22;33226;56.996;14.584;2022-08-01T09:23:48;24.70;91.30
47490;DHT22;33226;56.996;14.584;2022-08-01T09:26:16;24.50;91.00
47490;DHT22;33226;56.996;14.584;2022-08-01T09:28:43;24.70;91.70
47490;DHT22;33226;56.996;14.584;2022-08-01T09:31:11;25.00;90.30
47490;DHT22;33226;56.996;14.584;2022-08-01T09:33:57;25.30;88.70
47490;DHT22;33226;56.996;14.584;2022-08-01T09:36:42;25.30;84.80
47490;DHT22;33226;56.996;14.584;2022-08-01T09:39:13;25.40;88.40
47490;DHT22;33226;56.996;14.584;2022-08-01T09:41:39;25.40;88.40
47490;DHT22;33226;56.996;14.584;2022-08-01T09:44:05;25.20;89.30
47490;DHT22;33226;56.996;14.584;2022-08-01T09:46:31;25.30;89.00
47490;DHT22;33226;56.996;14.584;2022-08-01T09:51:33;25.70;87.70
47490;DHT22;33226;56.996;14.584;2022-08-01T09:54:01;26.00;86.00
47490;DHT22;33226;56.996;14.584;2022-08-01T09:56:36;26.10;88.20
47490;DHT22;33226;56.996;14.584;2022-08-01T09:59:02;25.70;87.60
47490;DHT22;33226;56.996;14.584;2022-08-01T10:01:48;25.60;88.00
47490;DHT22;33226;56.996;14.584;2022-08-01T10:04:16;25.50;86.90
47490;DHT22;33226;56.996;14.584;2022-08-01T10:06:45;25.30;86.00
47490;DHT22;33226;56.996;14.584;2022-08-01T10:09:12;25.10;88.00
47490;DHT22;33226;56.996;14.584;2022-08-01T10:11:41;24.70;87.40
47490;DHT22;33226;56.996;14.584;2022-08-01T10:14:07;24.50;90.80
47490;DHT22;33226;56.996;14.584;2022-08-01T10:16:35;24.60;90.30
47490;DHT22;33226;56.996;14.584;2022-08-01T10:19:06;24.80;91.30
47490;DHT22;33226;56.996;14.584;2022-08-01T10:21:33;25.10;90.60
47490;DHT22;33226;56.996;14.584;2022-08-01T10:24:02;25.30;90.80
47490;DHT22;33226;56.996;14.584;2022-08-01T10:26:30;25.70;89.00
47490;DHT22;33226;56.996;14.584;2022-08-01T10:28:57;26.00;85.40
47490;DHT22;33226;56.996;14.584;2022-08-01T10:31:23;26.00;85.30
47490;DHT22;33226;56.996;14.584;2022-08-01T10:33:50;26.00;85.20
47490;DHT22;33226;56.996;14.584;2022-08-01T10:36:20;25.90;86.00
47490;DHT22;33226;56.996;14.584;2022-08-01T10:38:47;25.70;86.70
47490;DHT22;33226;56.996;14.584;2022-08-01T10:41:13;25.50;87.80
47490;DHT22;33226;56.996;14.584;2022-08-01T10:43:41;25.30;86.30
47490;DHT22;33226;56.996;14.584;2022-08-01T10:46:07;25.00;85.50
47490;DHT22;33226;56.996;14.584;2022-08-01T10:48:51;24.90;89.20
47490;DHT22;33226;56.996;14.584;2022-08-01T10:51:19;24.90;89.60
47490;DHT22;33226;56.996;14.584;2022-08-01T10:53:52;24.60;91.20
47490;DHT22;33226;56.996;14.584;2022-08-01T10:56:18;24.20;91.50
47490;DHT22;33226;56.996;14.584;2022-08-01T10:58:46;23.90;91.40
47490;DHT22;33226;56.996;14.584;2022-08-01T11:01:30;23.70;92.80
47490;DHT22;33226;56.996;14.584;2022-08-01T11:06:25;23.80;93.90
47490;DHT22;33226;56.996;14.584;2022-08-01T11:08:54;23.90;93.50
47490;DHT22;33226;56.996;14.584;2022-08-01T11:11:21;24.10;94.10
47490;DHT22;33226;56.996;14.584;2022-08-01T11:16:34;24.20;93.80
47490;DHT22;33226;56.996;14.584;2022-08-01T11:19:00;24.30;93.80
47490;DHT22;33226;56.996;14.584;2022-08-01T11:27:26;24.20;93.00
47490;DHT22;33226;56.996;14.584;2022-08-01T11:35:11;23.90;94.30
47490;DHT22;33226;56.996;14.584;2022-08-01T11:37:37;23.80;93.60
47490;DHT22;33226;56.996;14.584;2022-08-01T11:42:42;23.80;95.10
47490;DHT22;33226;56.996;14.584;2022-08-01T11:45:08;23.80;94.90
47490;DHT22;33226;56.996;14.584;2022-08-01T11:47:47;24.00;94.50
47490;DHT22;33226;56.996;14.584;2022-08-01T11:53:01;23.90;93.90
47490;DHT22;33226;56.996;14.584;2022-08-01T11:55:28;23.80;95.10
47490;DHT22;33226;56.996;14.584;2022-08-01T11:58:04;23.90;95.30
47490;DHT22;33226;56.996;14.584;2022-08-01T12:00:31;23.90;94.70
47490;DHT22;33226;56.996;14.584;2022-08-01T12:03:02;23.80;95.20
47490;DHT22;33226;56.996;14.584;2022-08-01T12:05:29;23.70;95.10
47490;DHT22;33226;56.996;14.584;2022-08-01T12:07:55;23.60;95.40
47490;DHT22;33226;56.996;14.584;2022-08-01T12:10:27;23.60;95.50
47490;DHT22;33226;56.996;14.584;2022-08-01T12:13:01;23.60;96.70
47490;DHT22;33226;56.996;14.584;2022-08-01T12:15:45;23.50;96.10
47490;DHT22;33226;56.996;14.584;2022-08-01T12:18:11;23.30;96.90
47490;DHT22;33226;56.996;14.584;2022-08-01T12:20:40;23.20;97.50
47490;DHT22;33226;56.996;14.584;2022-08-01T12:23:09;23.10;98.00
47490;DHT22;33226;56.996;14.584;2022-08-01T12:25:36;23.00;98.60
47490;DHT22;33226;56.996;14.584;2022-08-01T12:28:04;22.90;99.00
47490;DHT22;33226;56.996;14.584;2022-08-01T12:30:31;22.90;99.20
47490;DHT22;33226;56.996;14.584;2022-08-01T12:33:01;22.70;99.70
47490;DHT22;33226;56.996;14.584;2022-08-01T12:35:28;22.60;99.90
47490;DHT22;33226;56.996;14.584;2022-08-01T12:40:31;22.30;99.90
47490;DHT22;33226;56.996;14.584;2022-08-01T12:43:05;22.10;99.90
47490;DHT22;33226;56.996;14.584;2022-08-01T12:45:41;22.00;99.90
47490;DHT22;33226;56.996;14.584;2022-08-01T12:48:14;21.90;99.90
47490;DHT22;33226;56.996;14.584;2022-08-01T12:50:50;21.70;99.90
47490;DHT22;33226;56.996;14.584;2022-08-01T12:53:17;21.60;99.90
47490;DHT22;33226;56.996;14.584;2022-08-01T12:55:54;21.50;99.90
47490;DHT22;33226;56.996;14.584;2022-08-01T12:58:20;21.40;99.90
47490;DHT22;33226;56.996;14.584;2022-08-01T13:00:48;21.30;99.90
47490;DHT22;33226;56.996;14.584;2022-08-01T13:03:18;21.20;99.90
47490;DHT22;33226;56.996;14.584;2022-08-01T13:05:55;21.10;99.90
47490;DHT22;33226;56.996;14.584;2022-08-01T13:08:34;20.90;99.90
47490;DHT22;33226;56.996;14.584;2022-08-01T13:11:03;20.70;99.90
47490;DHT22;33226;56.996;14.584;2022-08-01T13:13:41;20.60;99.90
47490;DHT22;33226;56.996;14.584;2022-08-01T13:16:08;20.50;99.90
47490;DHT22;33226;56.996;14.584;2022-08-01T13:18:35;20.40;99.90
47490;DHT22;33226;56.996;14.584;2022-08-01T13:21:17;20.50;99.90
47490;DHT22;33226;56.996;14.584;2022-08-01T13:29:19;20.60;99.90
47490;DHT22;33226;56.996;14.584;2022-08-01T13:31:46;20.80;99.90
47490;DHT22;33226;56.996;14.584;2022-08-01T13:34:12;20.90;99.90
47490;DHT22;33226;56.996;14.584;2022-08-01T13:36:38;21.10;99.90
47490;DHT22;33226;56.996;14.584;2022-08-01T13:39:04;21.30;99.90
47490;DHT22;33226;56.996;14.584;2022-08-01T13:41:49;21.50;99.90
47490;DHT22;33226;56.996;14.584;2022-08-01T13:44:15;21.60;99.90
47490;DHT22;33226;56.996;14.584;2022-08-01T13:46:42;21.60;99.90
47490;DHT22;33226;56.996;14.584;2022-08-01T13:49:09;21.60;99.90
47490;DHT22;33226;56.996;14.584;2022-08-01T13:51:36;21.50;99.90
47490;DHT22;33226;56.996;14.584;2022-08-01T13:54:02;21.10;99.90
47490;DHT22;33226;56.996;14.584;2022-08-01T13:56:28;20.90;99.90
47490;DHT22;33226;56.996;14.584;2022-08-01T13:58:55;20.70;99.90
47490;DHT22;33226;56.996;14.584;2022-08-01T14:01:21;20.50;99.90
47490;DHT22;33226;56.996;14.584;2022-08-01T14:03:47;20.30;99.90
47490;DHT22;33226;56.996;14.584;2022-08-01T14:06:14;20.10;99.90
47490;DHT22;33226;56.996;14.584;2022-08-01T14:08:42;19.90;99.90
47490;DHT22;33226;56.996;14.584;2022-08-01T14:11:08;19.80;99.90
47490;DHT22;33226;56.996;14.584;2022-08-01T14:13:33;19.60;99.90
47490;DHT22;33226;56.996;14.584;2022-08-01T14:15:59;19.50;99.90
47490;DHT22;33226;56.996;14.584;2022-08-01T14:18:25;19.40;99.90
47490;DHT22;33226;56.996;14.584;2022-08-01T14:20:51;19.40;99.90
47490;DHT22;33226;56.996;14.584;2022-08-01T14:23:17;19.40;99.90
47490;DHT22;33226;56.996;14.584;2022-08-01T14:25:43;19.40;99.90
47490;DHT22;33226;56.996;14.584;2022-08-01T14:28:09;19.40;99.90
47490;DHT22;33226;56.996;14.584;2022-08-01T14:30:36;19.40;99.90
47490;DHT22;33226;56.996;14.584;2022-08-01T14:33:01;19.50;99.90
47490;DHT22;33226;56.996;14.584;2022-08-01T14:35:27;19.50;99.90
47490;DHT22;33226;56.996;14.584;2022-08-01T14:37:52;19.60;99.90
47490;DHT22;33226;56.996;14.584;2022-08-01T14:40:18;19.70;99.90
47490;DHT22;33226;56.996;14.584;2022-08-01T14:42:44;19.90;99.90
47490;DHT22;33226;56.996;14.584;2022-08-01T14:45:11;20.00;99.90
47490;DHT22;33226;56.996;14.584;2022-08-01T14:47:38;20.00;99.90
47490;DHT22;33226;56.996;14.584;2022-08-01T14:50:10;20.20;99.90
47490;DHT22;33226;56.996;14.584;2022-08-01T14:52:36;20.30;99.90
47490;DHT22;33226;56.996;14.584;2022-08-01T14:55:03;20.40;99.90
47490;DHT22;33226;56.996;14.584;2022-08-01T14:57:30;20.60;99.90
47490;DHT22;33226;56.996;14.584;2022-08-01T14:59:56;20.60;99.90
47490;DHT22;33226;56.996;14.584;2022-08-01T15:02:22;20.80;99.90
47490;DHT22;33226;56.996;14.584;2022-08-01T15:04:48;20.90;99.90
47490;DHT22;33226;56.996;14.584;2022-08-01T15:07:15;20.80;99.90
47490;DHT22;33226;56.996;14.584;2022-08-01T15:09:41;20.90;99.90
47490;DHT22;33226;56.996;14.584;2022-08-01T15:12:07;20.90;99.90
47490;DHT22;33226;56.996;14.584;2022-08-01T15:14:33;20.90;99.90
47490;DHT22;33226;56.996;14.584;2022-08-01T15:17:15;20.90;99.90
47490;DHT22;33226;56.996;14.584;2022-08-01T15:19:40;20.80;99.90
47490;DHT22;33226;56.996;14.584;2022-08-01T15:22:06;20.70;99.90
47490;DHT22;33226;56.996;14.584;2022-08-01T15:24:31;20.70;99.90
47490;DHT22;33226;56.996;14.584;2022-08-01T15:26:57;20.70;99.90
47490;DHT22;33226;56.996;14.584;2022-08-01T15:29:23;20.60;99.90
47490;DHT22;33226;56.996;14.584;2022-08-01T15:31:48;20.60;99.90
47490;DHT22;33226;56.996;14.584;2022-08-01T15:34:14;20.60;99.90
47490;DHT22;33226;56.996;14.584;2022-08-01T15:36:40;20.70;99.90
47490;DHT22;33226;56.996;14.584;2022-08-01T15:39:08;20.80;99.90
47490;DHT22;33226;56.996;14.584;2022-08-01T15:41:34;20.70;99.90
47490;DHT22;33226;56.996;14.584;2022-08-01T15:43:59;20.80;99.90
47490;DHT22;33226;56.996;14.584;2022-08-01T15:46:25;20.70;99.90
47490;DHT22;33226;56.996;14.584;2022-08-01T15:48:51;20.60;99.90
47490;DHT22;33226;56.996;14.584;2022-08-01T15:51:17;20.60;99.90
47490;DHT22;33226;56.996;14.584;2022-08-01T15:53:42;20.60;99.90
47490;DHT22;33226;56.996;14.584;2022-08-01T15:56:09;20.50;99.90
47490;DHT22;33226;56.996;14.584;2022-08-01T15:58:35;20.50;99.90
47490;DHT22;33226;56.996;14.584;2022-08-01T16:01:00;20.60;99.90
47490;DHT22;33226;56.996;14.584;2022-08-01T16:03:26;20.60;99.90
47490;DHT22;33226;56.996;14.584;2022-08-01T16:05:53;20.70;99.90
47490;DHT22;33226;56.996;14.584;2022-08-01T16:08:18;20.70;99.90